createdAt,value
2023-01-24T00:00:42.401Z,28.95
2023-01-24T00:03:13.234Z,28.77
2023-01-24T00:05:41.115Z,28.02
2023-01-24T00:08:08.209Z,27.13
2023-01-24T00:10:35.428Z,28.70
2023-01-24T00:13:02.223Z,27.75
2023-01-24T00:15:29.243Z,27.90
2023-01-24T00:17:56.101Z,26.58
2023-01-24T00:20:23.025Z,26.50
2023-01-24T00:22:50.152Z,26.92
2023-01-24T00:25:16.996Z,26.92
2023-01-24T00:27:43.987Z,28.10
2023-01-24T00:30:12.213Z,27.02
2023-01-24T00:32:39.586Z,26.90
2023-01-24T00:35:07.484Z,26.67
2023-01-24T00:37:34.458Z,26.77
2023-01-24T00:40:01.379Z,26.67
2023-01-24T00:42:28.436Z,27.73
2023-01-24T00:44:55.335Z,27.05
2023-01-24T00:47:22.683Z,25.67
2023-01-24T00:49:49.542Z,28.00
2023-01-24T00:52:16.878Z,27.92
2023-01-24T00:54:43.716Z,25.48
2023-01-24T00:57:10.547Z,25.17
2023-01-24T00:59:39.104Z,25.88
2023-01-24T01:02:05.927Z,25.95
2023-01-24T01:04:32.803Z,27.38
2023-01-24T01:06:59.684Z,26.58
2023-01-24T01:09:26.530Z,24.77
2023-01-24T01:11:53.503Z,25.60
2023-01-24T01:14:20.467Z,26.25
2023-01-24T01:16:47.268Z,26.33
2023-01-24T01:19:14.149Z,25.40
2023-01-24T01:21:40.966Z,26.33
2023-01-24T01:24:07.821Z,25.20
2023-01-24T01:26:35.162Z,25.70
2023-01-24T01:29:02.773Z,26.25
2023-01-24T01:31:29.748Z,23.98
2023-01-24T01:33:57.188Z,25.35
2023-01-24T01:36:24.035Z,25.20
2023-01-24T01:38:54.561Z,23.85
2023-01-24T01:41:21.573Z,26.33
2023-01-24T01:44:07.064Z,25.92
2023-01-24T01:46:48.014Z,25.45
2023-01-24T01:49:26.309Z,25.50
2023-01-24T01:52:01.693Z,24.92
2023-01-24T01:54:40.309Z,24.85
2023-01-24T01:57:12.929Z,24.63
2023-01-24T01:59:59.654Z,24.75
2023-01-24T02:02:27.344Z,24.70
2023-01-24T02:04:58.933Z,24.83
2023-01-24T02:08:00.284Z,25.25
2023-01-24T02:10:47.706Z,24.15
2023-01-24T02:13:14.877Z,25.30
2023-01-24T02:16:05.259Z,24.35
2023-01-24T02:18:35.188Z,23.63
2023-01-24T02:21:07.338Z,24.27
2023-01-24T02:23:51.735Z,24.55
2023-01-24T02:26:24.590Z,23.98
2023-01-24T02:29:07.872Z,24.30
2023-01-24T02:32:01.145Z,24.42
2023-01-24T02:34:30.211Z,24.25
2023-01-24T02:37:00.697Z,25.10
2023-01-24T02:39:33.515Z,24.23
2023-01-24T02:42:13.209Z,24.55
2023-01-24T02:44:47.757Z,24.75
2023-01-24T02:47:14.762Z,24.50
2023-01-24T02:49:43.418Z,24.15
2023-01-24T02:52:29.399Z,23.70
2023-01-24T02:54:56.388Z,22.83
2023-01-24T02:57:41.621Z,24.58
2023-01-24T03:00:09.694Z,23.40
2023-01-24T03:02:37.758Z,22.40
2023-01-24T03:05:05.042Z,22.27
2023-01-24T03:07:44.650Z,24.92
2023-01-24T03:10:17.314Z,23.52
2023-01-24T03:13:06.502Z,24.00
2023-01-24T03:15:55.310Z,23.02
2023-01-24T03:18:40.659Z,24.20
2023-01-24T03:21:26.439Z,24.77
2023-01-24T03:24:12.133Z,21.98
2023-01-24T03:26:57.689Z,24.95
2023-01-24T03:29:43.298Z,23.63
2023-01-24T03:32:29.996Z,23.27
2023-01-24T03:34:57.035Z,23.45
2023-01-24T03:37:47.793Z,23.10
2023-01-24T03:40:17.011Z,22.63
2023-01-24T03:42:49.227Z,23.35
2023-01-24T03:45:25.091Z,24.02
2023-01-24T03:47:57.053Z,21.73
2023-01-24T03:50:48.506Z,22.73
2023-01-24T03:53:16.543Z,23.10
2023-01-24T03:55:46.818Z,22.52
2023-01-24T03:58:14.742Z,21.80
2023-01-24T04:00:41.921Z,22.42
2023-01-24T04:03:28.103Z,21.42
2023-01-24T04:05:54.983Z,23.35
2023-01-24T04:08:21.861Z,22.98
2023-01-24T04:10:49.807Z,22.70
2023-01-24T04:13:17.267Z,22.10
2023-01-24T04:15:45.758Z,22.10
2023-01-24T04:18:40.051Z,21.15
2023-01-24T04:21:07.513Z,21.58
2023-01-24T04:23:38.685Z,21.40
2023-01-24T04:26:05.517Z,21.30
2023-01-24T04:28:33.905Z,21.73
2023-01-24T04:31:03.745Z,21.80
2023-01-24T04:33:53.478Z,22.35
2023-01-24T04:36:21.789Z,20.42
2023-01-24T04:38:48.678Z,21.75
2023-01-24T04:41:24.160Z,22.08
2023-01-24T04:43:54.060Z,20.77
2023-01-24T04:46:21.549Z,20.52
2023-01-24T04:48:56.526Z,20.63
2023-01-24T04:51:34.879Z,20.23
2023-01-24T04:54:05.285Z,19.10
2023-01-24T04:56:35.525Z,19.50
2023-01-24T04:59:02.502Z,19.88
2023-01-24T05:01:30.103Z,20.13
2023-01-24T05:04:06.338Z,19.25
2023-01-24T05:06:35.915Z,20.05
2023-01-24T05:09:04.076Z,19.80
2023-01-24T05:11:53.697Z,18.23
2023-01-24T05:14:20.960Z,20.33
2023-01-24T05:16:47.803Z,18.80
2023-01-24T05:19:14.679Z,20.08
2023-01-24T05:21:41.547Z,20.95
2023-01-24T05:24:09.146Z,19.00
2023-01-24T05:26:36.530Z,20.23
2023-01-24T05:29:03.727Z,19.42
2023-01-24T05:31:31.358Z,19.02
2023-01-24T05:33:59.166Z,18.27
2023-01-24T05:36:26.419Z,17.48
2023-01-24T05:38:53.883Z,18.05
2023-01-24T05:41:21.602Z,18.42
2023-01-24T05:43:51.622Z,16.83
2023-01-24T05:46:24.551Z,18.48
2023-01-24T05:49:14.257Z,17.23
2023-01-24T05:51:43.662Z,17.27
2023-01-24T05:54:12.355Z,17.48
2023-01-24T05:57:00.779Z,17.10
2023-01-24T05:59:35.583Z,16.58
2023-01-24T06:02:02.469Z,16.67
2023-01-24T06:04:29.984Z,17.08
2023-01-24T06:06:56.735Z,15.10
2023-01-24T06:09:24.799Z,16.85
2023-01-24T06:11:52.323Z,17.95
2023-01-24T06:14:20.682Z,17.20
2023-01-24T06:16:48.866Z,17.48
2023-01-24T06:19:16.654Z,16.48
2023-01-24T06:21:46.860Z,16.95
2023-01-24T06:24:29.680Z,17.20
2023-01-24T06:27:25.292Z,16.90
2023-01-24T06:29:52.449Z,18.20
2023-01-24T06:32:46.876Z,19.25
2023-01-24T06:35:13.711Z,17.48
2023-01-24T06:37:48.081Z,18.85
2023-01-24T06:40:17.730Z,17.10
2023-01-24T06:42:45.321Z,18.48
2023-01-24T06:45:12.645Z,17.95
2023-01-24T06:47:40.742Z,17.42
2023-01-24T06:50:09.581Z,18.27
2023-01-24T06:52:36.370Z,18.05
2023-01-24T06:55:03.324Z,17.13
2023-01-24T06:57:30.454Z,18.38
2023-01-24T06:59:57.195Z,18.60
2023-01-24T07:02:24.547Z,17.33
2023-01-24T07:04:51.404Z,16.58
2023-01-24T07:07:18.220Z,18.27
2023-01-24T07:09:44.992Z,17.00
2023-01-24T07:12:11.764Z,16.10
2023-01-24T07:14:38.558Z,17.60
2023-01-24T07:17:05.696Z,18.75
2023-01-24T07:19:32.896Z,17.00
2023-01-24T07:22:00.793Z,17.45
2023-01-24T07:24:30.491Z,17.23
2023-01-24T07:26:58.305Z,17.00
2023-01-24T07:29:25.336Z,17.52
2023-01-24T07:31:54.088Z,16.90
2023-01-24T07:34:21.122Z,15.85
2023-01-24T07:36:48.639Z,15.73
2023-01-24T07:39:16.438Z,16.13
2023-01-24T07:41:44.974Z,15.27
2023-01-24T07:44:14.207Z,15.55
2023-01-24T07:46:41.445Z,11.07
2023-01-24T07:49:08.706Z,13.20
2023-01-24T07:51:35.693Z,13.23
2023-01-24T07:54:03.278Z,13.65
2023-01-24T07:56:30.219Z,13.57
2023-01-24T07:58:58.336Z,14.35
2023-01-24T08:01:25.793Z,15.00
2023-01-24T08:03:57.724Z,16.48
2023-01-24T08:06:25.292Z,16.10
2023-01-24T08:08:52.490Z,18.80
2023-01-24T08:11:19.419Z,17.98
2023-01-24T08:13:46.895Z,17.85
2023-01-24T08:16:14.254Z,17.42
2023-01-24T08:18:41.828Z,17.85
2023-01-24T08:21:09.053Z,18.13
2023-01-24T08:23:36.164Z,18.80
2023-01-24T08:26:06.687Z,19.55
2023-01-24T08:28:34.804Z,19.20
2023-01-24T08:31:01.891Z,18.67
2023-01-24T08:33:28.821Z,19.23
2023-01-24T08:35:55.592Z,20.13
2023-01-24T08:38:22.489Z,19.63
2023-01-24T08:40:50.794Z,18.80
2023-01-24T08:43:18.213Z,19.88
2023-01-24T08:45:45.460Z,19.35
2023-01-24T08:48:12.296Z,20.75
2023-01-24T08:50:39.526Z,20.55
2023-01-24T08:53:06.436Z,18.30
2023-01-24T08:55:33.383Z,18.95
2023-01-24T08:58:04.958Z,18.20
2023-01-24T09:00:32.604Z,19.25
2023-01-24T09:03:01.663Z,19.38
2023-01-24T09:05:30.034Z,19.92
2023-01-24T09:07:57.403Z,18.50
2023-01-24T09:10:24.375Z,19.02
2023-01-24T09:12:51.752Z,19.52
2023-01-24T09:15:18.608Z,19.98
2023-01-24T09:17:48.339Z,20.35
2023-01-24T09:20:15.617Z,19.65
2023-01-24T09:22:42.467Z,20.98
2023-01-24T09:25:09.869Z,22.08
2023-01-24T09:27:37.885Z,21.50
2023-01-24T09:30:06.161Z,21.65
2023-01-24T09:32:40.106Z,24.83
2023-01-24T09:35:10.193Z,23.30
2023-01-24T09:37:37.040Z,22.52
2023-01-24T09:40:04.280Z,23.10
2023-01-24T09:42:40.045Z,20.77
2023-01-24T09:45:21.762Z,20.60
2023-01-24T09:47:55.134Z,22.30
2023-01-24T09:50:27.631Z,20.15
2023-01-24T09:52:57.856Z,21.13
2023-01-24T09:55:35.903Z,20.95
2023-01-24T09:58:04.265Z,20.17
2023-01-24T10:00:34.675Z,18.00
2023-01-24T10:03:02.421Z,17.63
2023-01-24T10:05:39.903Z,20.15
2023-01-24T10:08:20.082Z,21.83
2023-01-24T10:10:55.784Z,19.33
2023-01-24T10:14:06.005Z,18.00
2023-01-24T10:16:54.300Z,19.80
2023-01-24T10:19:50.711Z,18.73
2023-01-24T10:22:23.439Z,17.63
2023-01-24T10:25:06.734Z,18.58
2023-01-24T10:27:45.374Z,17.23
2023-01-24T10:30:27.530Z,18.77
2023-01-24T10:33:00.404Z,17.92
2023-01-24T10:35:33.659Z,17.23
2023-01-24T10:38:08.049Z,18.70
2023-01-24T10:40:49.475Z,17.83
2023-01-24T10:43:18.305Z,18.92
2023-01-24T10:46:14.828Z,18.65
2023-01-24T10:48:46.981Z,17.80
2023-01-24T10:51:19.537Z,16.75
2023-01-24T10:53:47.548Z,17.15
2023-01-24T10:56:17.031Z,18.58
2023-01-24T10:59:12.366Z,18.42
2023-01-24T11:01:49.166Z,17.38
2023-01-24T11:04:30.634Z,18.58
2023-01-24T11:06:57.569Z,18.88
2023-01-24T11:09:31.460Z,18.83
2023-01-24T11:12:00.354Z,19.50
2023-01-24T11:14:31.777Z,19.13
2023-01-24T11:17:01.396Z,21.23
2023-01-24T11:19:41.253Z,21.20
2023-01-24T11:22:25.967Z,19.92
2023-01-24T11:24:59.653Z,21.02
2023-01-24T11:27:27.753Z,20.13
2023-01-24T11:30:13.605Z,18.15
2023-01-24T11:33:03.683Z,20.35
2023-01-24T11:35:47.091Z,19.58
2023-01-24T11:38:35.146Z,19.65
2023-01-24T11:41:22.693Z,19.23
2023-01-24T11:44:14.852Z,19.38
2023-01-24T11:46:56.872Z,19.95
2023-01-24T11:49:33.130Z,19.40
2023-01-24T11:52:48.386Z,19.48
2023-01-24T11:55:15.221Z,18.80
2023-01-24T11:58:03.352Z,20.73
2023-01-24T12:00:43.256Z,19.67
2023-01-24T12:03:29.357Z,20.52
2023-01-24T12:06:13.219Z,19.92
2023-01-24T12:08:58.811Z,21.10
2023-01-24T12:11:40.221Z,23.02
2023-01-24T12:14:45.312Z,20.25
2023-01-24T12:17:39.206Z,19.38
2023-01-24T12:20:31.749Z,19.58
2023-01-24T12:23:12.021Z,20.48
2023-01-24T12:25:42.621Z,20.33
2023-01-24T12:28:15.698Z,18.45
2023-01-24T12:30:48.705Z,18.35
2023-01-24T12:33:34.449Z,18.02
2023-01-24T12:36:23.782Z,19.77
2023-01-24T12:38:55.019Z,19.02
2023-01-24T12:41:35.435Z,19.10
2023-01-24T12:44:27.070Z,19.20
2023-01-24T12:47:12.686Z,18.55
2023-01-24T12:49:45.689Z,19.35
2023-01-24T12:52:21.738Z,18.67
2023-01-24T12:54:57.440Z,18.13
2023-01-24T12:57:57.561Z,18.50
2023-01-24T13:00:25.885Z,18.75
2023-01-24T13:03:28.135Z,18.98
2023-01-24T13:06:09.958Z,18.65
2023-01-24T13:08:49.553Z,18.08
2023-01-24T13:11:25.476Z,19.30
2023-01-24T13:14:01.236Z,18.45
2023-01-24T13:16:53.195Z,18.60
2023-01-24T13:19:54.566Z,18.23
2023-01-24T13:22:30.114Z,17.95
2023-01-24T13:24:56.880Z,19.30
2023-01-24T13:27:49.245Z,17.00
2023-01-24T13:30:41.806Z,18.73
2023-01-24T13:33:19.023Z,18.92
2023-01-24T13:35:53.287Z,18.17
2023-01-24T13:38:28.438Z,17.77
2023-01-24T13:41:07.015Z,19.00
2023-01-24T13:44:02.334Z,20.45
2023-01-24T13:46:44.536Z,17.45
2023-01-24T13:49:30.086Z,18.45
2023-01-24T13:51:58.551Z,19.40
2023-01-24T13:54:41.680Z,17.58
2023-01-24T13:57:31.029Z,17.42
2023-01-24T14:00:22.541Z,18.90
2023-01-24T14:02:49.418Z,19.27
2023-01-24T14:05:47.065Z,19.20
2023-01-24T14:08:22.832Z,20.30
2023-01-24T14:11:21.168Z,20.20
2023-01-24T14:13:51.285Z,20.13
2023-01-24T14:16:33.387Z,21.13
2023-01-24T14:19:13.070Z,19.48
2023-01-24T14:21:48.739Z,23.23
2023-01-24T14:24:36.593Z,21.80
2023-01-24T14:27:19.472Z,21.63
2023-01-24T14:29:49.614Z,20.80
2023-01-24T14:32:24.259Z,21.23
2023-01-24T14:35:27.778Z,19.58
2023-01-24T14:38:10.593Z,20.55
2023-01-24T14:40:41.076Z,20.10
2023-01-24T14:43:10.182Z,20.83
2023-01-24T14:45:37.182Z,24.08
2023-01-24T14:48:09.696Z,21.63
2023-01-24T14:50:38.960Z,22.80
2023-01-24T14:53:24.640Z,24.23
2023-01-24T14:55:57.334Z,21.83
2023-01-24T14:58:26.283Z,21.95
2023-01-24T15:00:56.911Z,20.55
2023-01-24T15:03:30.190Z,20.27
2023-01-24T15:06:00.718Z,19.60
2023-01-24T15:08:28.441Z,21.20
2023-01-24T15:11:08.200Z,20.92
2023-01-24T15:13:46.051Z,21.40
2023-01-24T15:16:25.498Z,20.52
2023-01-24T15:18:55.963Z,22.55
2023-01-24T15:21:40.550Z,22.58
2023-01-24T15:24:23.891Z,22.92
2023-01-24T15:26:50.953Z,22.88
2023-01-24T15:29:44.623Z,24.58
2023-01-24T15:32:31.269Z,23.92
2023-01-24T15:35:35.164Z,23.77
2023-01-24T15:38:20.675Z,22.85
2023-01-24T15:40:47.403Z,22.40
2023-01-24T15:44:00.315Z,24.92
2023-01-24T15:46:56.566Z,23.98
2023-01-24T15:49:36.625Z,23.05
2023-01-24T15:52:12.032Z,27.45
2023-01-24T15:54:41.560Z,24.98
2023-01-24T15:57:25.367Z,23.48
2023-01-24T15:59:58.851Z,23.23
2023-01-24T16:02:26.236Z,23.05
2023-01-24T16:04:53.178Z,22.73
2023-01-24T16:07:20.798Z,21.77
2023-01-24T16:09:49.403Z,28.50
2023-01-24T16:12:19.325Z,23.40
2023-01-24T16:15:06.967Z,28.35
2023-01-24T16:17:35.893Z,33.53
2023-01-24T16:20:04.815Z,26.20
2023-01-24T16:22:33.544Z,30.70
2023-01-24T16:25:00.381Z,29.92
2023-01-24T16:27:32.250Z,24.95
2023-01-24T16:29:59.346Z,28.58
2023-01-24T16:32:27.495Z,24.08
2023-01-24T16:34:54.277Z,23.02
2023-01-24T16:37:23.332Z,22.05
2023-01-24T16:39:50.908Z,21.50
2023-01-24T16:42:19.552Z,21.17
2023-01-24T16:45:06.846Z,20.17
2023-01-24T16:47:33.706Z,24.33
2023-01-24T16:50:00.749Z,25.90
2023-01-24T16:52:28.284Z,22.30
2023-01-24T16:54:55.091Z,23.48
2023-01-24T16:57:22.239Z,21.33
2023-01-24T16:59:49.250Z,21.80
2023-01-24T17:02:16.956Z,20.38
2023-01-24T17:04:44.226Z,21.88
2023-01-24T17:07:11.049Z,22.50
2023-01-24T17:09:37.883Z,24.15
2023-01-24T17:12:14.137Z,22.70
2023-01-24T17:14:42.163Z,21.95
2023-01-24T17:17:09.326Z,21.00
2023-01-24T17:19:38.311Z,20.55
2023-01-24T17:22:06.603Z,21.00
2023-01-24T17:24:33.810Z,23.45
2023-01-24T17:27:00.830Z,21.40
2023-01-24T17:29:29.730Z,21.80
2023-01-24T17:31:57.591Z,22.73
2023-01-24T17:34:25.208Z,21.63
2023-01-24T17:36:52.615Z,27.77
2023-01-24T17:39:19.627Z,21.60
2023-01-24T17:41:46.507Z,20.75
2023-01-24T17:44:13.536Z,21.02
2023-01-24T17:46:40.481Z,20.85
2023-01-24T17:49:07.383Z,20.98
2023-01-24T17:51:37.008Z,23.73
2023-01-24T17:54:05.133Z,23.08
2023-01-24T17:56:32.714Z,25.30
2023-01-24T17:59:00.407Z,21.63
2023-01-24T18:01:27.580Z,23.63
2023-01-24T18:03:54.827Z,24.83
2023-01-24T18:06:22.138Z,23.40
2023-01-24T18:08:49.461Z,22.45
2023-01-24T18:11:18.744Z,22.55
2023-01-24T18:13:45.664Z,27.02
2023-01-24T18:16:21.150Z,22.85
2023-01-24T18:18:48.868Z,21.08
2023-01-24T18:21:26.609Z,23.17
2023-01-24T18:23:56.023Z,20.55
2023-01-24T18:26:24.119Z,23.25
2023-01-24T18:28:51.004Z,21.23
2023-01-24T18:31:18.411Z,19.95
2023-01-24T18:33:45.587Z,20.75
2023-01-24T18:36:17.581Z,20.05
2023-01-24T18:38:46.038Z,21.70
2023-01-24T18:41:14.800Z,20.50
2023-01-24T18:43:42.534Z,20.75
2023-01-24T18:46:11.963Z,21.92
2023-01-24T18:48:41.230Z,21.73
2023-01-24T18:51:11.343Z,23.45
2023-01-24T18:53:38.148Z,20.27
2023-01-24T18:56:06.171Z,23.55
2023-01-24T18:58:35.242Z,22.30
2023-01-24T19:01:13.471Z,19.63
2023-01-24T19:03:40.860Z,22.73
2023-01-24T19:06:08.780Z,21.15
2023-01-24T19:08:36.170Z,21.33
2023-01-24T19:11:11.425Z,22.92
2023-01-24T19:13:38.384Z,21.70
2023-01-24T19:16:05.792Z,22.90
2023-01-24T19:18:32.829Z,21.60
2023-01-24T19:21:06.725Z,22.05
2023-01-24T19:23:41.891Z,21.63
2023-01-24T19:26:10.345Z,22.23
2023-01-24T19:28:38.189Z,21.52
2023-01-24T19:31:07.027Z,22.27
2023-01-24T19:33:34.412Z,23.17
2023-01-24T19:36:06.111Z,23.73
2023-01-24T19:38:33.171Z,21.77
2023-01-24T19:41:08.228Z,22.98
2023-01-24T19:43:37.199Z,22.25
2023-01-24T19:46:12.356Z,23.30
2023-01-24T19:48:40.001Z,23.30
2023-01-24T19:51:09.762Z,23.25
2023-01-24T19:53:37.636Z,25.00
2023-01-24T19:56:07.142Z,25.00
2023-01-24T19:58:35.013Z,24.52
2023-01-24T20:01:10.287Z,23.65
2023-01-24T20:03:39.957Z,25.13
2023-01-24T20:06:08.937Z,26.35
2023-01-24T20:08:36.018Z,24.80
2023-01-24T20:11:08.415Z,25.67
2023-01-24T20:13:35.931Z,27.13
2023-01-24T20:16:08.930Z,26.77
2023-01-24T20:18:35.818Z,24.35
2023-01-24T20:21:02.683Z,22.42
2023-01-24T20:23:29.550Z,30.67
2023-01-24T20:26:06.175Z,27.08
2023-01-24T20:28:35.838Z,28.17
2023-01-24T20:31:03.806Z,25.20
2023-01-24T20:33:31.747Z,27.13
2023-01-24T20:36:04.559Z,23.60
2023-01-24T20:38:37.613Z,25.42
2023-01-24T20:41:16.768Z,25.17
2023-01-24T20:43:44.941Z,25.48
2023-01-24T20:46:22.915Z,24.60
2023-01-24T20:48:52.331Z,27.90
2023-01-24T20:51:19.775Z,32.42
2023-01-24T20:53:46.684Z,27.95
2023-01-24T20:56:18.179Z,29.80
2023-01-24T20:58:44.995Z,28.15
2023-01-24T21:01:16.796Z,25.42
2023-01-24T21:03:43.914Z,24.20
2023-01-24T21:06:14.072Z,24.83
2023-01-24T21:08:43.014Z,24.92
2023-01-24T21:11:29.189Z,25.95
2023-01-24T21:13:58.409Z,26.17
2023-01-24T21:16:26.948Z,24.15
2023-01-24T21:18:56.216Z,25.70
2023-01-24T21:21:25.082Z,31.73
2023-01-24T21:23:52.038Z,31.80
2023-01-24T21:26:20.056Z,29.65
2023-01-24T21:28:49.702Z,30.88
2023-01-24T21:31:19.446Z,29.33
2023-01-24T21:33:47.538Z,27.35
2023-01-24T21:36:20.477Z,30.33
2023-01-24T21:38:48.583Z,28.98
2023-01-24T21:41:36.809Z,28.73
2023-01-24T21:44:04.088Z,26.92
2023-01-24T21:46:30.908Z,25.65
2023-01-24T21:49:06.869Z,34.58
2023-01-24T21:51:36.659Z,27.13
2023-01-24T21:54:06.309Z,25.95
2023-01-24T21:57:03.099Z,25.67
2023-01-24T21:59:31.888Z,35.05
2023-01-24T22:02:01.158Z,26.70
2023-01-24T22:04:30.177Z,27.30
2023-01-24T22:06:57.883Z,33.70
2023-01-24T22:09:25.103Z,25.48
2023-01-24T22:11:55.012Z,24.77
2023-01-24T22:14:26.223Z,27.92
2023-01-24T22:16:57.103Z,34.00
2023-01-24T22:19:30.803Z,25.42
2023-01-24T22:22:13.366Z,28.38
2023-01-24T22:24:56.882Z,26.25
2023-01-24T22:27:23.914Z,26.67
2023-01-24T22:29:52.816Z,24.30
2023-01-24T22:32:22.129Z,24.13
2023-01-24T22:34:50.077Z,24.60
2023-01-24T22:37:33.502Z,26.08
2023-01-24T22:40:00.348Z,22.00
2023-01-24T22:42:27.406Z,25.88
2023-01-24T22:44:54.310Z,24.17
2023-01-24T22:47:21.292Z,32.65
2023-01-24T22:49:48.415Z,22.30
2023-01-24T22:52:15.976Z,24.13
2023-01-24T22:54:43.035Z,24.85
2023-01-24T22:57:09.965Z,26.15
2023-01-24T22:59:37.480Z,24.23
2023-01-24T23:02:04.758Z,23.10
2023-01-24T23:04:31.744Z,25.33
2023-01-24T23:06:58.529Z,23.17
2023-01-24T23:09:25.370Z,28.42
2023-01-24T23:11:52.276Z,29.50
2023-01-24T23:14:37.851Z,27.60
2023-01-24T23:17:13.612Z,25.92
2023-01-24T23:20:20.824Z,24.00
2023-01-24T23:22:47.775Z,24.40
2023-01-24T23:25:14.705Z,29.15
2023-01-24T23:27:41.533Z,27.75
2023-01-24T23:30:14.358Z,25.00
2023-01-24T23:32:49.893Z,23.45
2023-01-24T23:35:17.051Z,22.13
2023-01-24T23:37:44.038Z,23.98
2023-01-24T23:40:16.961Z,24.08
2023-01-24T23:42:43.914Z,25.10
2023-01-24T23:45:19.853Z,26.88
2023-01-24T23:47:46.857Z,25.52
2023-01-24T23:50:19.769Z,24.50
2023-01-24T23:52:46.939Z,22.00
2023-01-24T23:55:13.790Z,25.30
2023-01-24T23:57:40.813Z,25.30
